Time;durP1;ratioP1;P1;durP2;ratioP2;P2;SDS_P1;SDS_P2;PMS_P1;PMS_P2;Temp;Humidity;BMP_temperature;BMP_pressure;BME280_temperature;BME280_humidity;BME280_pressure;Samples;Min_cycle;Max_cycle;Signal;HPM_P1;HPM_P2
2021/12/20 00:05:33;;;;;;;0.20;0.10;;;6.40;99.90;;;;;;20906315;28;20269;-73
2021/12/20 00:15:37;;;;;;;0.20;0.10;;;5.90;99.90;;;;;;20888148;28;20312;-73
2021/12/20 00:25:48;;;;;;;0.20;0.10;;;5.90;99.90;;;;;;20908388;28;20276;-73
2021/12/20 00:35:51;;;;;;;0.20;0.10;;;6.20;99.90;;;;;;20890232;28;20217;-73
2021/12/20 00:45:57;;;;;;;0.20;0.10;;;6.20;99.90;;;;;;20908068;28;20193;-74
2021/12/20 00:56:00;;;;;;;0.20;0.00;;;5.90;99.90;;;;;;20923719;28;20256;-73
2021/12/20 01:06:06;;;;;;;0.20;0.10;;;6.00;99.90;;;;;;20858204;23;20237;-77
2021/12/20 01:16:12;;;;;;;0.20;0.10;;;5.90;99.90;;;;;;20902470;28;20228;-77
2021/12/20 01:26:17;;;;;;;0.20;0.10;;;6.10;99.90;;;;;;20922447;28;20255;-75
2021/12/20 01:36:21;;;;;;;0.20;0.10;;;6.00;99.90;;;;;;20922203;28;20221;-76
2021/12/20 01:46:25;;;;;;;0.20;0.10;;;5.50;99.90;;;;;;20921270;28;20225;-78
2021/12/20 01:56:31;;;;;;;0.20;0.10;;;6.00;99.90;;;;;;20920629;28;20217;-75
2021/12/20 02:06:39;;;;;;;0.20;0.00;;;6.00;99.90;;;;;;20921377;28;20222;-77
2021/12/20 02:16:44;;;;;;;0.20;0.10;;;6.10;99.90;;;;;;20865441;28;20240;-76
2021/12/20 02:26:51;;;;;;;0.20;0.10;;;6.00;99.90;;;;;;20857490;28;20202;-76
2021/12/20 02:47:28;;;;;;;0.20;0.10;;;6.60;99.90;;;;;;20819435;28;20651;-77
2021/12/20 02:57:35;;;;;;;0.20;0.10;;;6.90;99.90;;;;;;20835788;28;20225;-76
2021/12/20 03:07:45;;;;;;;0.20;0.10;;;6.30;99.90;;;;;;20798215;23;20333;-72
2021/12/20 03:17:52;;;;;;;0.20;0.10;;;6.00;99.90;;;;;;20821455;28;20224;-72
2021/12/20 03:27:57;;;;;;;0.30;0.30;;;5.90;99.90;;;;;;20829614;28;20530;-71
2021/12/20 03:38:01;;;;;;;0.20;0.10;;;5.70;99.90;;;;;;20827281;28;20766;-72
2021/12/20 03:48:07;;;;;;;0.20;0.00;;;5.90;99.90;;;;;;20827023;28;20585;-70
2021/12/20 03:58:10;;;;;;;0.20;0.10;;;6.10;99.90;;;;;;20809166;28;20320;-71
2021/12/20 04:08:15;;;;;;;0.20;0.10;;;6.00;99.90;;;;;;20827431;28;20226;-73
2021/12/20 04:18:19;;;;;;;0.20;0.10;;;6.30;99.90;;;;;;20748484;28;20237;-72
2021/12/20 04:28:24;;;;;;;0.20;0.10;;;6.00;99.90;;;;;;20740094;28;20286;-72
2021/12/20 04:38:30;;;;;;;0.20;0.10;;;6.30;99.90;;;;;;20756203;28;20240;-71
2021/12/20 04:48:35;;;;;;;0.20;0.10;;;6.30;99.90;;;;;;20759667;28;20656;-71
2021/12/20 04:58:38;;;;;;;0.20;0.10;;;6.20;99.90;;;;;;20758743;28;20317;-72
2021/12/20 05:08:48;;;;;;;0.20;0.10;;;6.20;99.90;;;;;;20743840;28;20238;-72
2021/12/20 05:18:52;;;;;;;0.20;0.10;;;5.90;99.90;;;;;;20663683;28;20561;-72
2021/12/20 05:28:57;;;;;;;0.20;0.10;;;6.10;99.90;;;;;;20673691;28;20551;-74
2021/12/20 05:39:02;;;;;;;0.20;0.10;;;6.30;99.90;;;;;;20672273;28;20223;-71
2021/12/20 05:49:07;;;;;;;0.20;0.10;;;5.80;99.90;;;;;;20676405;28;20254;-72
2021/12/20 05:59:11;;;;;;;0.20;0.10;;;5.50;99.90;;;;;;20674205;28;20571;-72
2021/12/20 06:09:16;;;;;;;0.20;0.10;;;5.50;99.90;;;;;;20755270;28;20640;-74
2021/12/20 06:19:20;;;;;;;0.20;0.10;;;5.60;99.90;;;;;;20816898;28;20316;-73
2021/12/20 06:29:25;;;;;;;0.20;0.10;;;5.60;99.90;;;;;;20833586;28;20226;-73
2021/12/20 06:39:30;;;;;;;0.20;0.10;;;5.90;99.90;;;;;;20834960;28;20304;-73
2021/12/20 06:49:35;;;;;;;0.20;0.10;;;5.80;99.90;;;;;;20829145;28;20288;-73
2021/12/20 06:59:38;;;;;;;0.20;0.10;;;5.80;99.90;;;;;;20828025;28;20236;-74
2021/12/20 07:09:44;;;;;;;0.20;0.10;;;5.50;99.90;;;;;;20816510;28;20536;-74
2021/12/20 07:19:48;;;;;;;0.20;0.10;;;5.70;99.90;;;;;;20744611;28;20226;-73
2021/12/20 07:29:53;;;;;;;0.20;0.10;;;5.90;99.90;;;;;;20747243;28;20204;-74
2021/12/20 07:39:56;;;;;;;0.20;0.10;;;6.20;99.90;;;;;;20744705;28;20232;-73
2021/12/20 07:50:01;;;;;;;0.20;0.10;;;6.60;99.90;;;;;;20744440;28;20205;-72
2021/12/20 08:00:06;;;;;;;0.20;0.10;;;7.00;99.90;;;;;;20742853;28;20266;-73
2021/12/20 08:10:17;;;;;;;0.20;0.10;;;7.40;99.90;;;;;;20742373;28;20218;-72
2021/12/20 08:20:23;;;;;;;0.20;0.00;;;7.80;99.90;;;;;;20742772;28;20309;-73
2021/12/20 08:30:28;;;;;;;0.20;0.10;;;8.30;99.90;;;;;;20683225;28;20227;-71
2021/12/20 08:40:32;;;;;;;1.93;1.53;;;8.50;99.90;;;;;;20660957;28;20262;-74
2021/12/20 08:50:40;;;;;;;0.20;0.00;;;8.80;99.90;;;;;;20660624;28;20246;-72
2021/12/20 09:00:44;;;;;;;0.20;0.10;;;9.30;99.90;;;;;;20651052;28;20284;-73
2021/12/20 09:10:50;;;;;;;0.20;0.10;;;9.60;99.90;;;;;;20746348;28;20534;-73
2021/12/20 09:20:56;;;;;;;0.20;0.10;;;9.70;99.90;;;;;;20755128;28;20306;-70
2021/12/20 09:31:03;;;;;;;0.20;0.10;;;9.70;99.90;;;;;;20752890;28;20191;-71
2021/12/20 09:41:59;;;;;;;0.20;0.10;;;10.00;99.90;;;;;;20745237;28;20226;-71
2021/12/20 09:51:46;;;;;;;0.20;0.10;;;10.40;99.90;;;;;;20734064;28;20211;-73
2021/12/20 10:01:51;;;;;;;0.20;0.10;;;11.00;99.90;;;;;;20732232;28;20239;-74
2021/12/20 10:12:18;;;;;;;0.20;0.10;;;11.60;99.90;;;;;;20707095;28;20202;-74
2021/12/20 10:22:25;;;;;;;0.20;0.10;;;11.90;99.90;;;;;;20818118;28;20284;-74
2021/12/20 10:32:44;;;;;;;0.20;0.10;;;12.50;99.90;;;;;;20823007;28;20198;-74
2021/12/20 10:42:49;;;;;;;0.20;0.00;;;13.10;99.90;;;;;;20782703;28;20340;-74
2021/12/20 10:53:10;;;;;;;0.20;0.10;;;13.80;99.90;;;;;;20737128;28;20209;-73
2021/12/20 11:03:25;;;;;;;0.20;0.10;;;14.30;99.90;;;;;;20744585;28;20250;-75
2021/12/20 11:13:38;;;;;;;0.20;0.10;;;14.90;99.90;;;;;;20785628;28;20600;-74
2021/12/20 11:23:41;;;;;;;0.20;0.10;;;15.90;99.90;;;;;;20826722;28;20266;-73
2021/12/20 11:33:46;;;;;;;0.20;0.07;;;16.60;99.90;;;;;;20825829;28;20292;-73
2021/12/20 11:43:51;;;;;;;0.20;0.10;;;17.30;99.90;;;;;;20776019;28;20226;-72
2021/12/20 11:53:56;;;;;;;0.20;0.10;;;17.20;99.90;;;;;;20741683;28;20293;-75
2021/12/20 12:04:00;;;;;;;0.20;0.00;;;17.10;99.90;;;;;;20741210;28;20233;-75
2021/12/20 12:14:58;;;;;;;0.20;0.10;;;17.10;99.90;;;;;;20786401;28;20222;-76
2021/12/20 12:25:53;;;;;;;0.20;0.10;;;17.10;99.90;;;;;;20806134;28;20209;-76
2021/12/20 12:36:39;;;;;;;0.20;0.00;;;17.20;99.90;;;;;;20821965;28;20595;-73
2021/12/20 12:47:08;;;;;;;0.20;0.10;;;17.60;99.90;;;;;;20758836;28;20195;-72
2021/12/20 12:57:44;;;;;;;0.20;0.10;;;17.60;99.90;;;;;;20756568;28;20575;-74
2021/12/20 13:08:03;;;;;;;0.20;0.10;;;18.10;99.90;;;;;;20752357;28;20296;-76
2021/12/20 13:18:20;;;;;;;0.20;0.10;;;18.30;99.90;;;;;;20807958;28;20280;-76
2021/12/20 13:28:26;;;;;;;0.20;0.10;;;18.20;99.90;;;;;;20864213;28;20210;-76
2021/12/20 13:38:33;;;;;;;0.20;0.10;;;17.70;99.90;;;;;;20825335;28;20691;-73
2021/12/20 13:48:37;;;;;;;0.20;0.00;;;17.70;99.90;;;;;;20753629;28;20221;-74
2021/12/20 13:58:49;;;;;;;0.20;0.10;;;17.90;99.90;;;;;;20751576;28;20241;-73
2021/12/20 14:09:06;;;;;;;0.20;0.10;;;18.50;99.90;;;;;;20740840;28;20269;-75
2021/12/20 14:30:27;;;;;;;0.20;0.00;;;19.50;99.90;;;;;;20898075;26;20308;-75
2021/12/20 14:40:40;;;;;;;0.80;0.33;;;19.20;99.90;;;;;;20896107;28;20229;-75
2021/12/20 14:50:48;;;;;;;0.20;0.10;;;17.80;99.90;;;;;;20897257;28;20197;-73
2021/12/20 15:01:20;;;;;;;0.20;0.10;;;17.10;99.90;;;;;;20665994;23;20238;-75
2021/12/20 15:11:31;;;;;;;0.20;0.10;;;17.60;99.90;;;;;;20583047;28;20200;-76
2021/12/20 15:21:36;;;;;;;0.20;0.10;;;17.50;99.90;;;;;;20580438;28;20331;-72
2021/12/20 15:31:42;;;;;;;0.20;0.10;;;17.90;99.90;;;;;;20577678;28;20279;-72
2021/12/20 15:41:55;;;;;;;0.20;0.00;;;17.60;99.90;;;;;;20577691;28;20227;-73
2021/12/20 15:52:00;;;;;;;0.20;0.10;;;16.10;99.90;;;;;;20579305;28;20246;-73
2021/12/20 16:02:05;;;;;;;0.20;0.10;;;14.50;99.90;;;;;;20576399;28;20235;-72
2021/12/20 16:12:16;;;;;;;0.20;0.10;;;14.00;99.90;;;;;;20592107;28;20223;-72
2021/12/20 16:22:20;;;;;;;0.20;0.10;;;13.40;99.90;;;;;;20578775;28;20676;-71
2021/12/20 16:32:27;;;;;;;0.20;0.00;;;13.20;99.90;;;;;;20577405;28;20279;-73
2021/12/20 16:42:31;;;;;;;0.20;0.10;;;13.00;99.90;;;;;;20576525;28;20224;-71
2021/12/20 16:52:39;;;;;;;0.20;0.00;;;12.80;99.90;;;;;;20575875;28;20200;-69
2021/12/20 17:02:50;;;;;;;0.20;0.10;;;12.30;99.90;;;;;;20576255;28;20288;-72
2021/12/20 17:12:57;;;;;;;0.20;0.20;;;12.20;99.90;;;;;;20587242;28;20199;-70
2021/12/20 17:23:01;;;;;;;0.20;0.10;;;12.00;99.90;;;;;;20573702;28;20619;-70
2021/12/20 17:33:08;;;;;;;0.20;0.17;;;11.90;99.90;;;;;;20575146;28;20258;-70
2021/12/20 17:43:11;;;;;;;0.20;0.10;;;11.80;99.90;;;;;;20576204;28;20257;-70
2021/12/20 17:53:17;;;;;;;0.20;0.10;;;11.80;99.90;;;;;;20595977;28;20239;-71
2021/12/20 18:03:21;;;;;;;0.20;0.10;;;11.60;99.90;;;;;;20656744;28;20307;-72
2021/12/20 18:13:27;;;;;;;0.20;0.10;;;11.40;99.90;;;;;;20685217;28;20206;-71
2021/12/20 18:23:32;;;;;;;0.20;0.10;;;11.30;99.90;;;;;;20655539;28;20262;-73
2021/12/20 18:33:37;;;;;;;0.20;0.10;;;10.80;99.90;;;;;;20677846;28;20205;-70
2021/12/20 18:43:41;;;;;;;0.20;0.10;;;10.90;99.90;;;;;;20749689;28;20222;-72
2021/12/20 18:53:47;;;;;;;0.20;0.10;;;10.60;99.90;;;;;;20749972;28;20534;-73
2021/12/20 19:03:51;;;;;;;0.20;0.10;;;10.20;99.90;;;;;;20750720;28;20296;-73
2021/12/20 19:14:13;;;;;;;0.20;0.10;;;10.10;99.90;;;;;;20718658;28;20203;-73
2021/12/20 19:24:17;;;;;;;0.20;0.10;;;9.90;99.90;;;;;;20678960;28;20354;-71
2021/12/20 19:34:24;;;;;;;0.20;0.10;;;9.40;99.90;;;;;;20661490;28;20728;-71
2021/12/20 19:44:27;;;;;;;0.20;0.10;;;9.60;99.90;;;;;;20660833;28;20227;-71
2021/12/20 19:54:35;;;;;;;0.20;0.10;;;9.50;99.90;;;;;;20660287;28;20227;-72
2021/12/20 20:04:38;;;;;;;0.20;0.10;;;9.30;99.90;;;;;;20660691;28;20227;-71
2021/12/20 20:14:44;;;;;;;0.20;0.20;;;9.30;99.90;;;;;;20612814;28;20211;-70
2021/12/20 20:24:47;;;;;;;0.20;0.10;;;9.10;99.90;;;;;;20579188;28;20700;-72
2021/12/20 20:34:53;;;;;;;0.20;0.10;;;8.90;99.90;;;;;;20608095;28;20210;-72
2021/12/20 20:44:58;;;;;;;0.20;0.10;;;8.70;99.90;;;;;;20658796;28;20574;-70
2021/12/20 20:55:04;;;;;;;2.67;2.57;;;8.60;99.90;;;;;;20658356;28;20589;-70
2021/12/20 21:05:12;;;;;;;1.10;1.10;;;8.50;99.90;;;;;;20661223;28;20230;-71
2021/12/20 21:15:18;;;;;;;0.20;0.07;;;8.60;99.90;;;;;;20678685;28;20687;-69
2021/12/20 21:25:22;;;;;;;0.20;0.10;;;8.50;99.90;;;;;;20672590;28;20780;-69
2021/12/20 21:35:27;;;;;;;0.20;0.10;;;8.20;99.90;;;;;;20665499;28;20610;-68
2021/12/20 21:45:31;;;;;;;0.20;0.10;;;8.10;99.90;;;;;;20671364;28;20238;-69
2021/12/20 21:55:37;;;;;;;0.20;0.10;;;8.20;99.90;;;;;;20671149;28;20231;-71
2021/12/20 22:05:40;;;;;;;0.20;0.10;;;8.10;99.90;;;;;;20664753;28;20227;-66
2021/12/20 22:15:46;;;;;;;0.20;0.10;;;7.80;99.90;;;;;;20669055;28;20199;-70
2021/12/20 22:25:50;;;;;;;0.20;0.10;;;7.70;99.90;;;;;;20667632;28;20704;-70
2021/12/20 22:35:55;;;;;;;0.20;0.10;;;7.60;99.90;;;;;;20668475;28;20241;-70
2021/12/20 22:45:58;;;;;;;0.20;0.10;;;7.60;99.90;;;;;;20667385;28;20301;-70
2021/12/20 22:56:03;;;;;;;0.20;0.10;;;7.30;99.90;;;;;;20667050;28;20234;-71
2021/12/20 23:06:07;;;;;;;0.20;0.10;;;7.50;99.90;;;;;;20666008;28;20223;-71
2021/12/20 23:16:12;;;;;;;0.20;0.10;;;7.30;99.90;;;;;;20665037;28;20724;-71
2021/12/20 23:26:16;;;;;;;0.20;0.10;;;7.30;99.90;;;;;;20663839;28;20250;-70
2021/12/20 23:36:21;;;;;;;0.20;0.10;;;7.40;99.90;;;;;;20664713;28;20206;-72
2021/12/20 23:46:25;;;;;;;0.20;0.00;;;7.40;99.90;;;;;;20664879;28;20258;-72
2021/12/20 23:56:30;;;;;;;0.20;0.13;;;7.40;99.90;;;;;;20665544;28;20228;-72
